sensor_id;sensor_type;location;lat;lon;timestamp;temperature;humidity
38183;DHT22;23991;52.430;10.586;2022-12-10T00:01:40;0.40;83.90
38183;DHT22;23991;52.430;10.586;2022-12-10T00:04:10;0.40;83.70
38183;DHT22;23991;52.430;10.586;2022-12-10T00:06:37;0.30;83.70
38183;DHT22;23991;52.430;10.586;2022-12-10T00:09:10;0.30;83.80
38183;DHT22;23991;52.430;10.586;2022-12-10T00:11:37;0.30;83.80
38183;DHT22;23991;52.430;10.586;2022-12-10T00:14:03;0.30;83.80
38183;DHT22;23991;52.430;10.586;2022-12-10T00:16:28;0.30;83.80
38183;DHT22;23991;52.430;10.586;2022-12-10T00:18:56;0.30;83.90
38183;DHT22;23991;52.430;10.586;2022-12-10T00:21:32;0.30;83.90
38183;DHT22;23991;52.430;10.586;2022-12-10T00:23:59;0.30;83.80
38183;DHT22;23991;52.430;10.586;2022-12-10T00:26:36;0.30;83.90
38183;DHT22;23991;52.430;10.586;2022-12-10T00:29:04;0.30;83.90
38183;DHT22;23991;52.430;10.586;2022-12-10T00:31:32;0.30;83.90
38183;DHT22;23991;52.430;10.586;2022-12-10T00:34:00;0.30;84.00
38183;DHT22;23991;52.430;10.586;2022-12-10T00:36:39;0.30;84.00
38183;DHT22;23991;52.430;10.586;2022-12-10T00:39:10;0.30;83.90
38183;DHT22;23991;52.430;10.586;2022-12-10T00:41:36;0.30;83.90
38183;DHT22;23991;52.430;10.586;2022-12-10T00:44:02;0.30;83.80
38183;DHT22;23991;52.430;10.586;2022-12-10T00:46:28;0.30;83.70
38183;DHT22;23991;52.430;10.586;2022-12-10T00:48:54;0.20;83.90
38183;DHT22;23991;52.430;10.586;2022-12-10T00:51:22;0.20;83.90
38183;DHT22;23991;52.430;10.586;2022-12-10T00:53:49;0.20;83.80
38183;DHT22;23991;52.430;10.586;2022-12-10T00:56:17;0.20;84.00
38183;DHT22;23991;52.430;10.586;2022-12-10T00:58:43;0.20;83.90
38183;DHT22;23991;52.430;10.586;2022-12-10T01:01:27;0.20;84.00
38183;DHT22;23991;52.430;10.586;2022-12-10T01:03:55;0.20;84.10
38183;DHT22;23991;52.430;10.586;2022-12-10T01:06:36;0.20;84.20
38183;DHT22;23991;52.430;10.586;2022-12-10T01:09:06;0.20;84.20
38183;DHT22;23991;52.430;10.586;2022-12-10T01:11:35;0.20;84.30
38183;DHT22;23991;52.430;10.586;2022-12-10T01:14:03;0.20;84.20
38183;DHT22;23991;52.430;10.586;2022-12-10T01:16:28;0.20;84.20
38183;DHT22;23991;52.430;10.586;2022-12-10T01:18:55;0.20;84.30
38183;DHT22;23991;52.430;10.586;2022-12-10T01:21:21;0.20;84.30
38183;DHT22;23991;52.430;10.586;2022-12-10T01:23:49;0.20;84.30
38183;DHT22;23991;52.430;10.586;2022-12-10T01:26:19;0.10;84.30
38183;DHT22;23991;52.430;10.586;2022-12-10T01:28:45;0.20;84.30
38183;DHT22;23991;52.430;10.586;2022-12-10T01:31:15;0.20;84.40
38183;DHT22;23991;52.430;10.586;2022-12-10T01:33:41;0.20;84.40
38183;DHT22;23991;52.430;10.586;2022-12-10T01:36:11;0.10;84.50
38183;DHT22;23991;52.430;10.586;2022-12-10T01:38:37;0.20;84.50
38183;DHT22;23991;52.430;10.586;2022-12-10T01:41:03;0.20;84.60
38183;DHT22;23991;52.430;10.586;2022-12-10T01:46:20;0.20;84.70
38183;DHT22;23991;52.430;10.586;2022-12-10T01:48:46;0.20;84.70
38183;DHT22;23991;52.430;10.586;2022-12-10T01:51:13;0.20;84.70
38183;DHT22;23991;52.430;10.586;2022-12-10T01:53:39;0.20;84.80
38183;DHT22;23991;52.430;10.586;2022-12-10T01:56:10;0.20;84.80
38183;DHT22;23991;52.430;10.586;2022-12-10T01:58:36;0.20;84.90
38183;DHT22;23991;52.430;10.586;2022-12-10T02:01:10;0.20;84.90
38183;DHT22;23991;52.430;10.586;2022-12-10T02:08:46;0.20;85.00
38183;DHT22;23991;52.430;10.586;2022-12-10T02:11:22;0.20;85.00
38183;DHT22;23991;52.430;10.586;2022-12-10T02:14:15;0.20;85.10
38183;DHT22;23991;52.430;10.586;2022-12-10T02:16:55;0.20;85.10
38183;DHT22;23991;52.430;10.586;2022-12-10T02:19:35;0.20;85.20
38183;DHT22;23991;52.430;10.586;2022-12-10T02:22:04;0.20;85.20
38183;DHT22;23991;52.430;10.586;2022-12-10T02:24:33;0.20;85.30
38183;DHT22;23991;52.430;10.586;2022-12-10T02:27:26;0.20;85.30
38183;DHT22;23991;52.430;10.586;2022-12-10T02:29:54;0.20;85.30
38183;DHT22;23991;52.430;10.586;2022-12-10T02:32:24;0.20;85.30
38183;DHT22;23991;52.430;10.586;2022-12-10T02:34:54;0.20;85.30
38183;DHT22;23991;52.430;10.586;2022-12-10T02:37:29;0.20;85.30
38183;DHT22;23991;52.430;10.586;2022-12-10T02:39:58;0.20;85.30
38183;DHT22;23991;52.430;10.586;2022-12-10T02:42:26;0.20;85.40
38183;DHT22;23991;52.430;10.586;2022-12-10T02:44:53;0.20;85.40
38183;DHT22;23991;52.430;10.586;2022-12-10T02:47:21;0.20;85.40
38183;DHT22;23991;52.430;10.586;2022-12-10T02:49:51;0.20;85.50
38183;DHT22;23991;52.430;10.586;2022-12-10T02:52:19;0.10;85.40
38183;DHT22;23991;52.430;10.586;2022-12-10T02:54:47;0.10;85.50
38183;DHT22;23991;52.430;10.586;2022-12-10T03:02:22;0.10;85.80
38183;DHT22;23991;52.430;10.586;2022-12-10T03:05:17;0.10;85.80
38183;DHT22;23991;52.430;10.586;2022-12-10T03:08:12;0.10;85.80
38183;DHT22;23991;52.430;10.586;2022-12-10T03:10:59;0.10;85.80
38183;DHT22;23991;52.430;10.586;2022-12-10T03:13:33;0.10;85.90
38183;DHT22;23991;52.430;10.586;2022-12-10T03:16:02;0.10;85.90
38183;DHT22;23991;52.430;10.586;2022-12-10T03:18:30;0.10;86.00
38183;DHT22;23991;52.430;10.586;2022-12-10T03:20:58;0.10;85.90
38183;DHT22;23991;52.430;10.586;2022-12-10T03:23:26;0.10;86.00
38183;DHT22;23991;52.430;10.586;2022-12-10T03:25:52;0.10;85.90
38183;DHT22;23991;52.430;10.586;2022-12-10T03:28:19;0.10;85.90
38183;DHT22;23991;52.430;10.586;2022-12-10T03:30:47;0.10;85.90
38183;DHT22;23991;52.430;10.586;2022-12-10T03:33:14;0.10;85.90
38183;DHT22;23991;52.430;10.586;2022-12-10T03:35:44;0.00;85.90
38183;DHT22;23991;52.430;10.586;2022-12-10T03:38:11;0.00;85.90
38183;DHT22;23991;52.430;10.586;2022-12-10T03:40:37;0.10;85.90
38183;DHT22;23991;52.430;10.586;2022-12-10T03:43:03;0.10;85.90
38183;DHT22;23991;52.430;10.586;2022-12-10T03:45:28;0.00;85.90
38183;DHT22;23991;52.430;10.586;2022-12-10T03:47:54;0.00;85.90
38183;DHT22;23991;52.430;10.586;2022-12-10T03:50:19;0.00;86.00
38183;DHT22;23991;52.430;10.586;2022-12-10T03:52:45;0.00;86.00
38183;DHT22;23991;52.430;10.586;2022-12-10T03:55:11;0.00;86.00
38183;DHT22;23991;52.430;10.586;2022-12-10T03:57:36;0.00;86.00
38183;DHT22;23991;52.430;10.586;2022-12-10T04:00:04;0.00;86.10
38183;DHT22;23991;52.430;10.586;2022-12-10T04:02:30;0.00;86.20
38183;DHT22;23991;52.430;10.586;2022-12-10T04:04:56;0.00;86.30
38183;DHT22;23991;52.430;10.586;2022-12-10T04:07:22;0.00;86.30
38183;DHT22;23991;52.430;10.586;2022-12-10T04:09:47;0.00;86.30
38183;DHT22;23991;52.430;10.586;2022-12-10T04:12:13;0.00;86.30
38183;DHT22;23991;52.430;10.586;2022-12-10T04:14:38;0.00;86.20
38183;DHT22;23991;52.430;10.586;2022-12-10T04:17:22;0.00;86.20
38183;DHT22;23991;52.430;10.586;2022-12-10T04:19:48;0.00;86.20
38183;DHT22;23991;52.430;10.586;2022-12-10T04:22:14;0.00;86.20
38183;DHT22;23991;52.430;10.586;2022-12-10T04:24:58;0.00;86.30
38183;DHT22;23991;52.430;10.586;2022-12-10T04:27:52;0.00;86.30
38183;DHT22;23991;52.430;10.586;2022-12-10T04:30:18;0.10;86.30
38183;DHT22;23991;52.430;10.586;2022-12-10T04:32:44;0.00;86.20
38183;DHT22;23991;52.430;10.586;2022-12-10T04:35:09;0.10;86.00
38183;DHT22;23991;52.430;10.586;2022-12-10T04:37:35;0.00;86.10
38183;DHT22;23991;52.430;10.586;2022-12-10T04:40:01;0.00;86.10
38183;DHT22;23991;52.430;10.586;2022-12-10T04:42:27;0.00;86.10
38183;DHT22;23991;52.430;10.586;2022-12-10T04:44:53;0.00;86.00
38183;DHT22;23991;52.430;10.586;2022-12-10T04:47:19;0.00;86.00
38183;DHT22;23991;52.430;10.586;2022-12-10T04:49:44;0.00;86.00
38183;DHT22;23991;52.430;10.586;2022-12-10T04:52:12;0.00;86.00
38183;DHT22;23991;52.430;10.586;2022-12-10T04:54:38;0.10;86.00
38183;DHT22;23991;52.430;10.586;2022-12-10T04:57:03;0.00;86.00
38183;DHT22;23991;52.430;10.586;2022-12-10T04:59:29;0.10;86.00
38183;DHT22;23991;52.430;10.586;2022-12-10T05:01:54;0.00;85.90
38183;DHT22;23991;52.430;10.586;2022-12-10T05:04:20;0.00;85.90
38183;DHT22;23991;52.430;10.586;2022-12-10T05:06:48;0.00;85.90
38183;DHT22;23991;52.430;10.586;2022-12-10T05:09:14;0.00;85.80
38183;DHT22;23991;52.430;10.586;2022-12-10T05:11:41;0.00;85.80
38183;DHT22;23991;52.430;10.586;2022-12-10T05:14:10;0.00;85.70
38183;DHT22;23991;52.430;10.586;2022-12-10T05:16:36;0.00;85.80
38183;DHT22;23991;52.430;10.586;2022-12-10T05:19:01;0.00;85.90
38183;DHT22;23991;52.430;10.586;2022-12-10T05:21:28;0.00;85.90
38183;DHT22;23991;52.430;10.586;2022-12-10T05:24:15;0.00;85.90
38183;DHT22;23991;52.430;10.586;2022-12-10T05:26:41;0.00;85.90
38183;DHT22;23991;52.430;10.586;2022-12-10T05:29:07;0.00;85.80
38183;DHT22;23991;52.430;10.586;2022-12-10T05:31:32;0.00;85.70
38183;DHT22;23991;52.430;10.586;2022-12-10T05:33:58;0.00;85.60
38183;DHT22;23991;52.430;10.586;2022-12-10T05:36:27;0.00;85.50
38183;DHT22;23991;52.430;10.586;2022-12-10T05:38:56;0.00;85.40
38183;DHT22;23991;52.430;10.586;2022-12-10T05:41:25;0.00;85.40
38183;DHT22;23991;52.430;10.586;2022-12-10T05:43:53;0.00;85.40
38183;DHT22;23991;52.430;10.586;2022-12-10T05:46:22;0.00;85.40
38183;DHT22;23991;52.430;10.586;2022-12-10T05:48:48;0.00;85.40
38183;DHT22;23991;52.430;10.586;2022-12-10T05:51:17;0.00;85.40
38183;DHT22;23991;52.430;10.586;2022-12-10T05:53:43;0.00;85.30
38183;DHT22;23991;52.430;10.586;2022-12-10T05:56:11;0.00;85.30
38183;DHT22;23991;52.430;10.586;2022-12-10T05:58:38;0.00;85.20
38183;DHT22;23991;52.430;10.586;2022-12-10T06:01:09;0.00;85.20
38183;DHT22;23991;52.430;10.586;2022-12-10T06:03:35;0.00;85.20
38183;DHT22;23991;52.430;10.586;2022-12-10T06:06:01;0.00;85.10
38183;DHT22;23991;52.430;10.586;2022-12-10T06:08:27;0.00;85.00
38183;DHT22;23991;52.430;10.586;2022-12-10T06:10:52;0.00;85.00
38183;DHT22;23991;52.430;10.586;2022-12-10T06:13:19;0.00;84.90
38183;DHT22;23991;52.430;10.586;2022-12-10T06:15:45;0.00;84.90
38183;DHT22;23991;52.430;10.586;2022-12-10T06:18:10;0.00;84.80
38183;DHT22;23991;52.430;10.586;2022-12-10T06:20:39;0.00;84.70
38183;DHT22;23991;52.430;10.586;2022-12-10T06:23:05;0.00;84.60
38183;DHT22;23991;52.430;10.586;2022-12-10T06:25:32;0.00;84.50
38183;DHT22;23991;52.430;10.586;2022-12-10T06:27:58;0.00;84.40
38183;DHT22;23991;52.430;10.586;2022-12-10T06:30:24;0.00;84.40
38183;DHT22;23991;52.430;10.586;2022-12-10T06:32:50;0.00;84.30
38183;DHT22;23991;52.430;10.586;2022-12-10T06:35:15;0.00;84.10
38183;DHT22;23991;52.430;10.586;2022-12-10T06:37:41;0.00;84.20
38183;DHT22;23991;52.430;10.586;2022-12-10T06:40:07;0.00;84.30
38183;DHT22;23991;52.430;10.586;2022-12-10T06:42:32;0.00;84.30
38183;DHT22;23991;52.430;10.586;2022-12-10T06:45:16;0.00;84.40
38183;DHT22;23991;52.430;10.586;2022-12-10T06:47:42;0.00;84.50
38183;DHT22;23991;52.430;10.586;2022-12-10T06:50:08;0.00;84.50
38183;DHT22;23991;52.430;10.586;2022-12-10T06:52:33;0.00;84.50
38183;DHT22;23991;52.430;10.586;2022-12-10T06:54:59;0.00;84.50
38183;DHT22;23991;52.430;10.586;2022-12-10T06:57:24;0.00;84.50
38183;DHT22;23991;52.430;10.586;2022-12-10T06:59:50;0.00;84.40
38183;DHT22;23991;52.430;10.586;2022-12-10T07:02:15;0.00;84.50
38183;DHT22;23991;52.430;10.586;2022-12-10T07:04:41;0.00;84.60
38183;DHT22;23991;52.430;10.586;2022-12-10T07:07:06;0.00;84.50
38183;DHT22;23991;52.430;10.586;2022-12-10T07:09:33;0.00;84.60
38183;DHT22;23991;52.430;10.586;2022-12-10T07:11:59;0.00;84.60
38183;DHT22;23991;52.430;10.586;2022-12-10T07:14:25;0.00;84.50
38183;DHT22;23991;52.430;10.586;2022-12-10T07:16:51;0.00;84.50
38183;DHT22;23991;52.430;10.586;2022-12-10T07:19:17;0.00;84.50
38183;DHT22;23991;52.430;10.586;2022-12-10T07:21:43;0.00;84.50
38183;DHT22;23991;52.430;10.586;2022-12-10T07:24:13;0.00;84.50
38183;DHT22;23991;52.430;10.586;2022-12-10T07:26:41;0.00;84.50
38183;DHT22;23991;52.430;10.586;2022-12-10T07:29:12;0.00;84.40
38183;DHT22;23991;52.430;10.586;2022-12-10T07:31:38;0.00;84.40
38183;DHT22;23991;52.430;10.586;2022-12-10T07:34:04;0.00;84.40
38183;DHT22;23991;52.430;10.586;2022-12-10T07:36:30;0.00;84.40
38183;DHT22;23991;52.430;10.586;2022-12-10T07:38:55;0.00;84.40
38183;DHT22;23991;52.430;10.586;2022-12-10T07:41:23;0.00;84.30
38183;DHT22;23991;52.430;10.586;2022-12-10T07:43:48;0.00;84.20
38183;DHT22;23991;52.430;10.586;2022-12-10T07:48:47;0.00;84.30
38183;DHT22;23991;52.430;10.586;2022-12-10T07:51:13;0.00;84.30
38183;DHT22;23991;52.430;10.586;2022-12-10T07:53:39;0.00;84.40
38183;DHT22;23991;52.430;10.586;2022-12-10T07:56:05;0.00;84.40
38183;DHT22;23991;52.430;10.586;2022-12-10T07:58:31;0.00;84.50
38183;DHT22;23991;52.430;10.586;2022-12-10T08:00:57;0.10;84.50
38183;DHT22;23991;52.430;10.586;2022-12-10T08:03:23;0.20;84.50
38183;DHT22;23991;52.430;10.586;2022-12-10T08:05:59;0.20;84.50
38183;DHT22;23991;52.430;10.586;2022-12-10T08:08:25;0.20;84.30
38183;DHT22;23991;52.430;10.586;2022-12-10T08:10:50;0.30;84.20
38183;DHT22;23991;52.430;10.586;2022-12-10T08:13:16;0.40;84.00
38183;DHT22;23991;52.430;10.586;2022-12-10T08:15:42;0.50;83.80
38183;DHT22;23991;52.430;10.586;2022-12-10T08:18:07;0.60;83.50
38183;DHT22;23991;52.430;10.586;2022-12-10T08:20:33;0.60;83.10
38183;DHT22;23991;52.430;10.586;2022-12-10T08:22:58;0.70;82.90
38183;DHT22;23991;52.430;10.586;2022-12-10T08:25:24;0.70;82.70
38183;DHT22;23991;52.430;10.586;2022-12-10T08:27:50;0.80;82.40
38183;DHT22;23991;52.430;10.586;2022-12-10T08:30:15;0.90;82.00
38183;DHT22;23991;52.430;10.586;2022-12-10T08:32:41;0.90;81.70
38183;DHT22;23991;52.430;10.586;2022-12-10T08:35:07;1.00;81.40
38183;DHT22;23991;52.430;10.586;2022-12-10T08:37:32;1.10;81.20
38183;DHT22;23991;52.430;10.586;2022-12-10T08:39:58;1.20;80.90
38183;DHT22;23991;52.430;10.586;2022-12-10T08:42:24;1.20;80.50
38183;DHT22;23991;52.430;10.586;2022-12-10T08:44:49;1.30;80.10
38183;DHT22;23991;52.430;10.586;2022-12-10T08:47:16;1.30;79.70
38183;DHT22;23991;52.430;10.586;2022-12-10T08:49:41;1.40;79.50
38183;DHT22;23991;52.430;10.586;2022-12-10T08:52:09;1.40;79.20
38183;DHT22;23991;52.430;10.586;2022-12-10T08:54:35;1.40;79.30
38183;DHT22;23991;52.430;10.586;2022-12-10T08:57:06;1.50;79.10
38183;DHT22;23991;52.430;10.586;2022-12-10T08:59:45;1.60;79.00
38183;DHT22;23991;52.430;10.586;2022-12-10T09:02:11;1.80;78.70
38183;DHT22;23991;52.430;10.586;2022-12-10T09:04:37;1.80;78.20
38183;DHT22;23991;52.430;10.586;2022-12-10T09:07:04;1.90;78.10
38183;DHT22;23991;52.430;10.586;2022-12-10T09:09:31;1.90;77.80
38183;DHT22;23991;52.430;10.586;2022-12-10T09:11:57;2.00;77.70
38183;DHT22;23991;52.430;10.586;2022-12-10T09:14:23;2.10;77.30
38183;DHT22;23991;52.430;10.586;2022-12-10T09:16:49;2.10;77.10
38183;DHT22;23991;52.430;10.586;2022-12-10T09:19:14;2.10;76.20
38183;DHT22;23991;52.430;10.586;2022-12-10T09:21:43;2.20;76.30
38183;DHT22;23991;52.430;10.586;2022-12-10T09:24:08;2.20;76.10
38183;DHT22;23991;52.430;10.586;2022-12-10T09:26:34;2.30;76.00
38183;DHT22;23991;52.430;10.586;2022-12-10T09:29:00;2.40;75.90
38183;DHT22;23991;52.430;10.586;2022-12-10T09:31:26;2.40;75.20
38183;DHT22;23991;52.430;10.586;2022-12-10T09:33:52;2.40;75.30
38183;DHT22;23991;52.430;10.586;2022-12-10T09:36:19;2.50;75.20
38183;DHT22;23991;52.430;10.586;2022-12-10T09:38:46;2.60;75.10
38183;DHT22;23991;52.430;10.586;2022-12-10T09:51:41;2.90;73.40
38183;DHT22;23991;52.430;10.586;2022-12-10T09:56:44;2.90;72.10
38183;DHT22;23991;52.430;10.586;2022-12-10T09:59:23;2.90;71.90
38183;DHT22;23991;52.430;10.586;2022-12-10T10:02:00;2.90;72.10
38183;DHT22;23991;52.430;10.586;2022-12-10T10:04:26;3.00;72.50
38183;DHT22;23991;52.430;10.586;2022-12-10T10:06:52;3.10;72.10
38183;DHT22;23991;52.430;10.586;2022-12-10T10:09:18;3.10;71.70
38183;DHT22;23991;52.430;10.586;2022-12-10T10:11:45;3.20;71.40
38183;DHT22;23991;52.430;10.586;2022-12-10T10:14:14;3.20;71.40
38183;DHT22;23991;52.430;10.586;2022-12-10T10:16:53;3.30;71.40
38183;DHT22;23991;52.430;10.586;2022-12-10T10:19:27;3.30;71.20
38183;DHT22;23991;52.430;10.586;2022-12-10T10:21:53;3.30;71.20
38183;DHT22;23991;52.430;10.586;2022-12-10T10:24:22;3.30;71.00
38183;DHT22;23991;52.430;10.586;2022-12-10T10:26:49;3.30;70.80
38183;DHT22;23991;52.430;10.586;2022-12-10T10:29:19;3.30;70.80
38183;DHT22;23991;52.430;10.586;2022-12-10T10:31:45;3.40;71.00
38183;DHT22;23991;52.430;10.586;2022-12-10T10:34:17;3.40;70.80
38183;DHT22;23991;52.430;10.586;2022-12-10T10:36:43;3.30;70.70
38183;DHT22;23991;52.430;10.586;2022-12-10T10:39:32;3.30;70.80
38183;DHT22;23991;52.430;10.586;2022-12-10T10:41:58;3.40;70.50
38183;DHT22;23991;52.430;10.586;2022-12-10T10:44:27;3.40;69.70
38183;DHT22;23991;52.430;10.586;2022-12-10T10:46:54;3.40;69.50
38183;DHT22;23991;52.430;10.586;2022-12-10T10:49:24;3.40;69.50
38183;DHT22;23991;52.430;10.586;2022-12-10T10:51:51;3.40;69.50
38183;DHT22;23991;52.430;10.586;2022-12-10T10:54:53;3.40;69.50
38183;DHT22;23991;52.430;10.586;2022-12-10T10:57:35;3.50;69.60
38183;DHT22;23991;52.430;10.586;2022-12-10T11:00:28;3.60;69.40
38183;DHT22;23991;52.430;10.586;2022-12-10T11:02:53;3.60;69.10
38183;DHT22;23991;52.430;10.586;2022-12-10T11:05:28;3.50;69.40
38183;DHT22;23991;52.430;10.586;2022-12-10T11:08:04;3.60;69.00
38183;DHT22;23991;52.430;10.586;2022-12-10T11:10:31;3.50;68.10
38183;DHT22;23991;52.430;10.586;2022-12-10T11:13:17;3.50;68.60
38183;DHT22;23991;52.430;10.586;2022-12-10T11:15:43;3.50;68.80
38183;DHT22;23991;52.430;10.586;2022-12-10T11:18:42;3.50;68.70
38183;DHT22;23991;52.430;10.586;2022-12-10T11:23:42;3.60;68.90
38183;DHT22;23991;52.430;10.586;2022-12-10T11:39:54;3.40;68.90
38183;DHT22;23991;52.430;10.586;2022-12-10T11:50:30;3.40;69.30
38183;DHT22;23991;52.430;10.586;2022-12-10T12:01:18;3.80;68.10
38183;DHT22;23991;52.430;10.586;2022-12-10T12:10:05;3.80;67.90
38183;DHT22;23991;52.430;10.586;2022-12-10T12:12:58;3.90;67.50
38183;DHT22;23991;52.430;10.586;2022-12-10T12:15:31;3.90;67.50
38183;DHT22;23991;52.430;10.586;2022-12-10T12:21:13;4.00;66.70
38183;DHT22;23991;52.430;10.586;2022-12-10T12:24:00;4.00;66.40
38183;DHT22;23991;52.430;10.586;2022-12-10T12:26:35;4.00;66.50
38183;DHT22;23991;52.430;10.586;2022-12-10T12:34:44;3.90;66.10
38183;DHT22;23991;52.430;10.586;2022-12-10T12:37:14;3.90;66.70
38183;DHT22;23991;52.430;10.586;2022-12-10T12:40:00;3.80;66.80
38183;DHT22;23991;52.430;10.586;2022-12-10T12:42:38;3.70;66.80
38183;DHT22;23991;52.430;10.586;2022-12-10T12:45:20;3.70;67.00
38183;DHT22;23991;52.430;10.586;2022-12-10T12:50:54;3.70;66.50
38183;DHT22;23991;52.430;10.586;2022-12-10T12:53:22;3.50;67.20
38183;DHT22;23991;52.430;10.586;2022-12-10T12:56:16;3.50;67.60
38183;DHT22;23991;52.430;10.586;2022-12-10T12:59:34;3.50;67.40
38183;DHT22;23991;52.430;10.586;2022-12-10T13:02:14;3.50;67.30
38183;DHT22;23991;52.430;10.586;2022-12-10T13:04:41;3.70;67.10
38183;DHT22;23991;52.430;10.586;2022-12-10T13:12:32;3.70;66.20
38183;DHT22;23991;52.430;10.586;2022-12-10T13:15:32;3.60;66.50
38183;DHT22;23991;52.430;10.586;2022-12-10T13:18:22;3.70;66.60
38183;DHT22;23991;52.430;10.586;2022-12-10T13:21:30;3.70;66.50
38183;DHT22;23991;52.430;10.586;2022-12-10T13:24:12;3.50;66.50
38183;DHT22;23991;52.430;10.586;2022-12-10T13:27:01;3.50;66.90
38183;DHT22;23991;52.430;10.586;2022-12-10T13:29:27;3.50;66.60
38183;DHT22;23991;52.430;10.586;2022-12-10T13:32:02;3.40;66.50
38183;DHT22;23991;52.430;10.586;2022-12-10T13:34:46;3.40;66.40
38183;DHT22;23991;52.430;10.586;2022-12-10T13:37:35;3.40;67.00
38183;DHT22;23991;52.430;10.586;2022-12-10T13:42:40;3.40;66.70
38183;DHT22;23991;52.430;10.586;2022-12-10T13:45:32;3.50;66.70
38183;DHT22;23991;52.430;10.586;2022-12-10T13:50:49;3.30;67.00
38183;DHT22;23991;52.430;10.586;2022-12-10T13:56:39;3.60;66.20
38183;DHT22;23991;52.430;10.586;2022-12-10T14:02:42;3.60;65.70
38183;DHT22;23991;52.430;10.586;2022-12-10T14:08:27;3.50;66.20
38183;DHT22;23991;52.430;10.586;2022-12-10T14:10:54;3.40;66.70
38183;DHT22;23991;52.430;10.586;2022-12-10T14:13:31;3.30;67.40
38183;DHT22;23991;52.430;10.586;2022-12-10T14:16:00;3.30;67.60
38183;DHT22;23991;52.430;10.586;2022-12-10T14:18:28;3.40;67.40
38183;DHT22;23991;52.430;10.586;2022-12-10T14:20:54;3.40;66.80
38183;DHT22;23991;52.430;10.586;2022-12-10T14:23:28;3.30;67.20
38183;DHT22;23991;52.430;10.586;2022-12-10T14:26:16;3.30;67.60
38183;DHT22;23991;52.430;10.586;2022-12-10T14:28:50;3.20;67.10
38183;DHT22;23991;52.430;10.586;2022-12-10T14:31:26;3.20;67.70
38183;DHT22;23991;52.430;10.586;2022-12-10T14:33:54;3.10;67.70
38183;DHT22;23991;52.430;10.586;2022-12-10T14:36:32;3.10;68.10
38183;DHT22;23991;52.430;10.586;2022-12-10T14:39:00;2.90;68.20
38183;DHT22;23991;52.430;10.586;2022-12-10T14:41:28;2.80;68.00
38183;DHT22;23991;52.430;10.586;2022-12-10T14:43:55;2.80;68.40
38183;DHT22;23991;52.430;10.586;2022-12-10T14:46:25;2.70;68.50
38183;DHT22;23991;52.430;10.586;2022-12-10T14:48:53;2.80;69.00
38183;DHT22;23991;52.430;10.586;2022-12-10T14:51:22;2.70;69.20
38183;DHT22;23991;52.430;10.586;2022-12-10T14:53:50;2.80;68.90
38183;DHT22;23991;52.430;10.586;2022-12-10T14:56:37;2.80;68.70
38183;DHT22;23991;52.430;10.586;2022-12-10T14:59:22;2.70;68.90
38183;DHT22;23991;52.430;10.586;2022-12-10T15:01:54;2.80;68.90
38183;DHT22;23991;52.430;10.586;2022-12-10T15:04:22;2.70;69.40
38183;DHT22;23991;52.430;10.586;2022-12-10T15:06:50;2.70;69.90
38183;DHT22;23991;52.430;10.586;2022-12-10T15:09:20;2.60;69.90
38183;DHT22;23991;52.430;10.586;2022-12-10T15:11:53;2.60;69.90
38183;DHT22;23991;52.430;10.586;2022-12-10T15:14:19;2.60;69.80
38183;DHT22;23991;52.430;10.586;2022-12-10T15:16:47;2.60;70.40
38183;DHT22;23991;52.430;10.586;2022-12-10T15:19:39;2.50;70.80
38183;DHT22;23991;52.430;10.586;2022-12-10T15:22:19;2.50;70.80
38183;DHT22;23991;52.430;10.586;2022-12-10T15:24:45;2.50;70.60
38183;DHT22;23991;52.430;10.586;2022-12-10T15:27:20;2.40;70.60
38183;DHT22;23991;52.430;10.586;2022-12-10T15:29:47;2.40;70.70
38183;DHT22;23991;52.430;10.586;2022-12-10T15:34:47;2.40;70.90
38183;DHT22;23991;52.430;10.586;2022-12-10T15:37:23;2.10;70.80
38183;DHT22;23991;52.430;10.586;2022-12-10T15:39:57;2.10;71.50
38183;DHT22;23991;52.430;10.586;2022-12-10T15:42:45;2.00;72.00
38183;DHT22;23991;52.430;10.586;2022-12-10T15:47:41;2.00;72.10
38183;DHT22;23991;52.430;10.586;2022-12-10T15:50:08;1.90;72.30
38183;DHT22;23991;52.430;10.586;2022-12-10T15:52:33;1.80;72.60
38183;DHT22;23991;52.430;10.586;2022-12-10T15:55:00;1.80;73.20
38183;DHT22;23991;52.430;10.586;2022-12-10T15:57:33;1.70;73.10
38183;DHT22;23991;52.430;10.586;2022-12-10T16:00:06;1.60;73.40
38183;DHT22;23991;52.430;10.586;2022-12-10T16:02:48;1.60;73.80
38183;DHT22;23991;52.430;10.586;2022-12-10T16:05:28;1.50;73.90
38183;DHT22;23991;52.430;10.586;2022-12-10T16:07:56;1.50;74.40
38183;DHT22;23991;52.430;10.586;2022-12-10T16:10:27;1.40;74.30
38183;DHT22;23991;52.430;10.586;2022-12-10T16:13:03;1.40;74.50
38183;DHT22;23991;52.430;10.586;2022-12-10T16:15:43;1.20;75.10
38183;DHT22;23991;52.430;10.586;2022-12-10T16:18:13;1.20;75.30
38183;DHT22;23991;52.430;10.586;2022-12-10T16:20:42;1.10;75.20
38183;DHT22;23991;52.430;10.586;2022-12-10T16:23:08;1.10;75.30
38183;DHT22;23991;52.430;10.586;2022-12-10T16:25:35;1.00;75.40
38183;DHT22;23991;52.430;10.586;2022-12-10T16:28:01;1.00;75.70
38183;DHT22;23991;52.430;10.586;2022-12-10T16:32:57;1.00;76.20
38183;DHT22;23991;52.430;10.586;2022-12-10T16:35:23;0.90;76.30
38183;DHT22;23991;52.430;10.586;2022-12-10T16:37:49;0.90;76.20
38183;DHT22;23991;52.430;10.586;2022-12-10T16:40:23;1.00;76.30
38183;DHT22;23991;52.430;10.586;2022-12-10T16:42:50;0.90;76.50
38183;DHT22;23991;52.430;10.586;2022-12-10T16:45:28;0.90;76.50
38183;DHT22;23991;52.430;10.586;2022-12-10T16:47:54;0.90;76.40
38183;DHT22;23991;52.430;10.586;2022-12-10T16:50:21;1.00;76.40
38183;DHT22;23991;52.430;10.586;2022-12-10T16:52:51;0.90;76.40
38183;DHT22;23991;52.430;10.586;2022-12-10T16:55:20;0.90;76.50
38183;DHT22;23991;52.430;10.586;2022-12-10T16:57:47;0.90;76.60
38183;DHT22;23991;52.430;10.586;2022-12-10T17:00:15;0.80;76.80
38183;DHT22;23991;52.430;10.586;2022-12-10T17:02:42;0.90;76.90
38183;DHT22;23991;52.430;10.586;2022-12-10T17:05:15;0.80;77.00
38183;DHT22;23991;52.430;10.586;2022-12-10T17:07:41;0.70;77.20
38183;DHT22;23991;52.430;10.586;2022-12-10T17:10:07;0.70;77.30
38183;DHT22;23991;52.430;10.586;2022-12-10T17:12:33;0.70;77.10
38183;DHT22;23991;52.430;10.586;2022-12-10T17:14:59;0.60;77.30
38183;DHT22;23991;52.430;10.586;2022-12-10T17:17:24;0.50;77.70
38183;DHT22;23991;52.430;10.586;2022-12-10T17:19:50;0.50;77.70
38183;DHT22;23991;52.430;10.586;2022-12-10T17:22:15;0.50;77.80
38183;DHT22;23991;52.430;10.586;2022-12-10T17:24:41;0.50;77.90
38183;DHT22;23991;52.430;10.586;2022-12-10T17:27:16;0.50;78.00
38183;DHT22;23991;52.430;10.586;2022-12-10T17:29:44;0.50;77.80
38183;DHT22;23991;52.430;10.586;2022-12-10T17:32:19;0.50;77.50
38183;DHT22;23991;52.430;10.586;2022-12-10T17:34:45;0.50;77.40
38183;DHT22;23991;52.430;10.586;2022-12-10T17:37:14;0.50;77.60